sensor_id;sensor_type;location;lat;lon;timestamp;P1;durP1;ratioP1;P2;durP2;ratioP2
18899;SDS011;9582;52.018;6.306;2024-03-22T00:01:43;39.87;;;25.07;;
18899;SDS011;9582;52.018;6.306;2024-03-22T00:04:09;41.57;;;25.20;;
18899;SDS011;9582;52.018;6.306;2024-03-22T00:06:35;43.20;;;24.67;;
18899;SDS011;9582;52.018;6.306;2024-03-22T00:09:01;40.13;;;23.97;;
18899;SDS011;9582;52.018;6.306;2024-03-22T00:11:28;42.83;;;24.97;;
18899;SDS011;9582;52.018;6.306;2024-03-22T00:13:53;41.00;;;24.07;;
18899;SDS011;9582;52.018;6.306;2024-03-22T00:16:20;43.90;;;25.10;;
18899;SDS011;9582;52.018;6.306;2024-03-22T00:18:47;42.23;;;25.03;;
18899;SDS011;9582;52.018;6.306;2024-03-22T00:21:14;44.60;;;25.93;;
18899;SDS011;9582;52.018;6.306;2024-03-22T00:23:39;41.80;;;24.57;;
18899;SDS011;9582;52.018;6.306;2024-03-22T00:26:07;40.17;;;24.50;;
18899;SDS011;9582;52.018;6.306;2024-03-22T00:28:32;46.85;;;25.17;;
18899;SDS011;9582;52.018;6.306;2024-03-22T00:30:59;44.60;;;24.92;;
18899;SDS011;9582;52.018;6.306;2024-03-22T00:33:24;42.75;;;25.00;;
18899;SDS011;9582;52.018;6.306;2024-03-22T00:35:52;41.67;;;24.87;;
18899;SDS011;9582;52.018;6.306;2024-03-22T00:38:18;41.37;;;23.90;;
18899;SDS011;9582;52.018;6.306;2024-03-22T00:40:45;46.93;;;25.10;;
18899;SDS011;9582;52.018;6.306;2024-03-22T00:43:10;43.23;;;24.53;;
18899;SDS011;9582;52.018;6.306;2024-03-22T00:45:37;45.80;;;25.97;;
18899;SDS011;9582;52.018;6.306;2024-03-22T00:48:03;41.83;;;25.23;;
18899;SDS011;9582;52.018;6.306;2024-03-22T00:50:30;44.67;;;24.90;;
18899;SDS011;9582;52.018;6.306;2024-03-22T00:52:57;45.43;;;24.97;;
18899;SDS011;9582;52.018;6.306;2024-03-22T00:55:24;47.17;;;25.00;;
18899;SDS011;9582;52.018;6.306;2024-03-22T00:57:49;47.83;;;25.73;;
18899;SDS011;9582;52.018;6.306;2024-03-22T01:00:16;45.57;;;26.27;;
18899;SDS011;9582;52.018;6.306;2024-03-22T01:02:42;43.70;;;25.97;;
18899;SDS011;9582;52.018;6.306;2024-03-22T01:05:09;44.40;;;25.23;;
18899;SDS011;9582;52.018;6.306;2024-03-22T01:07:35;44.53;;;25.20;;
18899;SDS011;9582;52.018;6.306;2024-03-22T01:10:04;45.30;;;25.03;;
18899;SDS011;9582;52.018;6.306;2024-03-22T01:12:30;45.20;;;25.70;;
18899;SDS011;9582;52.018;6.306;2024-03-22T01:14:57;51.35;;;26.92;;
18899;SDS011;9582;52.018;6.306;2024-03-22T01:17:23;42.37;;;24.57;;
18899;SDS011;9582;52.018;6.306;2024-03-22T01:19:49;45.35;;;26.60;;
18899;SDS011;9582;52.018;6.306;2024-03-22T01:22:16;45.80;;;26.58;;
18899;SDS011;9582;52.018;6.306;2024-03-22T01:24:44;48.17;;;26.65;;
18899;SDS011;9582;52.018;6.306;2024-03-22T01:27:11;49.90;;;27.43;;
18899;SDS011;9582;52.018;6.306;2024-03-22T01:29:38;48.03;;;27.40;;
18899;SDS011;9582;52.018;6.306;2024-03-22T01:32:04;48.50;;;26.47;;
18899;SDS011;9582;52.018;6.306;2024-03-22T01:34:31;52.87;;;27.77;;
18899;SDS011;9582;52.018;6.306;2024-03-22T01:36:56;54.87;;;28.03;;
18899;SDS011;9582;52.018;6.306;2024-03-22T01:39:23;50.63;;;28.00;;
18899;SDS011;9582;52.018;6.306;2024-03-22T01:41:48;48.88;;;26.85;;
18899;SDS011;9582;52.018;6.306;2024-03-22T01:44:17;49.30;;;27.43;;
18899;SDS011;9582;52.018;6.306;2024-03-22T01:46:43;49.50;;;26.47;;
18899;SDS011;9582;52.018;6.306;2024-03-22T01:49:11;52.73;;;28.07;;
18899;SDS011;9582;52.018;6.306;2024-03-22T01:51:39;52.30;;;28.03;;
18899;SDS011;9582;52.018;6.306;2024-03-22T01:54:05;49.63;;;27.80;;
18899;SDS011;9582;52.018;6.306;2024-03-22T01:56:34;51.38;;;27.20;;
18899;SDS011;9582;52.018;6.306;2024-03-22T01:59:03;51.63;;;28.33;;
18899;SDS011;9582;52.018;6.306;2024-03-22T02:01:31;53.13;;;27.48;;
18899;SDS011;9582;52.018;6.306;2024-03-22T02:03:58;50.30;;;27.83;;
18899;SDS011;9582;52.018;6.306;2024-03-22T02:06:24;48.97;;;28.23;;
18899;SDS011;9582;52.018;6.306;2024-03-22T02:08:50;51.27;;;28.17;;
18899;SDS011;9582;52.018;6.306;2024-03-22T02:11:16;53.70;;;28.47;;
18899;SDS011;9582;52.018;6.306;2024-03-22T02:13:43;47.13;;;27.97;;
18899;SDS011;9582;52.018;6.306;2024-03-22T02:16:09;53.70;;;29.23;;
18899;SDS011;9582;52.018;6.306;2024-03-22T02:18:37;50.88;;;28.33;;
18899;SDS011;9582;52.018;6.306;2024-03-22T02:21:03;50.08;;;28.27;;
18899;SDS011;9582;52.018;6.306;2024-03-22T02:23:33;51.60;;;27.80;;
18899;SDS011;9582;52.018;6.306;2024-03-22T02:25:59;50.27;;;25.73;;
18899;SDS011;9582;52.018;6.306;2024-03-22T02:28:25;48.13;;;27.73;;
18899;SDS011;9582;52.018;6.306;2024-03-22T02:30:51;52.43;;;27.63;;
18899;SDS011;9582;52.018;6.306;2024-03-22T02:33:18;49.63;;;27.75;;
18899;SDS011;9582;52.018;6.306;2024-03-22T02:35:43;50.53;;;27.63;;
18899;SDS011;9582;52.018;6.306;2024-03-22T02:38:12;50.87;;;27.40;;
18899;SDS011;9582;52.018;6.306;2024-03-22T02:40:39;51.77;;;27.77;;
18899;SDS011;9582;52.018;6.306;2024-03-22T02:43:06;57.50;;;32.00;;
18899;SDS011;9582;52.018;6.306;2024-03-22T02:45:31;51.90;;;29.30;;
18899;SDS011;9582;52.018;6.306;2024-03-22T02:47:58;52.38;;;28.20;;
18899;SDS011;9582;52.018;6.306;2024-03-22T02:50:24;47.35;;;27.98;;
18899;SDS011;9582;52.018;6.306;2024-03-22T02:52:50;52.90;;;26.40;;
18899;SDS011;9582;52.018;6.306;2024-03-22T02:55:16;48.92;;;28.35;;
18899;SDS011;9582;52.018;6.306;2024-03-22T02:57:44;53.33;;;29.73;;
18899;SDS011;9582;52.018;6.306;2024-03-22T03:00:10;48.70;;;29.08;;
18899;SDS011;9582;52.018;6.306;2024-03-22T03:02:37;48.75;;;28.17;;
18899;SDS011;9582;52.018;6.306;2024-03-22T03:05:03;49.93;;;28.17;;
18899;SDS011;9582;52.018;6.306;2024-03-22T03:07:31;50.77;;;28.00;;
18899;SDS011;9582;52.018;6.306;2024-03-22T03:09:56;49.05;;;28.65;;
18899;SDS011;9582;52.018;6.306;2024-03-22T03:12:23;53.67;;;27.90;;
18899;SDS011;9582;52.018;6.306;2024-03-22T03:14:50;49.70;;;27.48;;
18899;SDS011;9582;52.018;6.306;2024-03-22T03:17:17;49.95;;;27.77;;
18899;SDS011;9582;52.018;6.306;2024-03-22T03:19:43;50.28;;;28.77;;
18899;SDS011;9582;52.018;6.306;2024-03-22T03:22:10;49.17;;;27.67;;
18899;SDS011;9582;52.018;6.306;2024-03-22T03:24:36;49.80;;;27.63;;
18899;SDS011;9582;52.018;6.306;2024-03-22T03:27:02;51.13;;;28.98;;
18899;SDS011;9582;52.018;6.306;2024-03-22T03:29:28;53.83;;;27.83;;
18899;SDS011;9582;52.018;6.306;2024-03-22T03:31:56;51.93;;;28.80;;
18899;SDS011;9582;52.018;6.306;2024-03-22T03:34:22;47.85;;;28.38;;
18899;SDS011;9582;52.018;6.306;2024-03-22T03:36:48;51.75;;;28.60;;
18899;SDS011;9582;52.018;6.306;2024-03-22T03:39:14;50.38;;;28.45;;
18899;SDS011;9582;52.018;6.306;2024-03-22T03:41:41;47.67;;;27.15;;
18899;SDS011;9582;52.018;6.306;2024-03-22T03:44:06;49.45;;;27.58;;
18899;SDS011;9582;52.018;6.306;2024-03-22T03:46:33;50.33;;;28.87;;
18899;SDS011;9582;52.018;6.306;2024-03-22T03:49:00;49.15;;;29.80;;
18899;SDS011;9582;52.018;6.306;2024-03-22T03:51:26;52.85;;;29.77;;
18899;SDS011;9582;52.018;6.306;2024-03-22T03:53:52;47.50;;;27.23;;
18899;SDS011;9582;52.018;6.306;2024-03-22T03:56:19;50.88;;;29.40;;
18899;SDS011;9582;52.018;6.306;2024-03-22T03:58:45;48.85;;;27.67;;
18899;SDS011;9582;52.018;6.306;2024-03-22T04:01:11;48.13;;;27.27;;
18899;SDS011;9582;52.018;6.306;2024-03-22T04:03:37;53.25;;;29.67;;
18899;SDS011;9582;52.018;6.306;2024-03-22T04:06:06;51.15;;;27.50;;
18899;SDS011;9582;52.018;6.306;2024-03-22T04:08:31;46.15;;;27.65;;
18899;SDS011;9582;52.018;6.306;2024-03-22T04:10:58;48.83;;;28.53;;
18899;SDS011;9582;52.018;6.306;2024-03-22T04:13:24;48.20;;;29.03;;
18899;SDS011;9582;52.018;6.306;2024-03-22T04:15:51;47.72;;;28.85;;
18899;SDS011;9582;52.018;6.306;2024-03-22T04:18:17;48.20;;;28.83;;
18899;SDS011;9582;52.018;6.306;2024-03-22T04:20:52;50.15;;;29.13;;
18899;SDS011;9582;52.018;6.306;2024-03-22T04:23:20;46.75;;;26.48;;
18899;SDS011;9582;52.018;6.306;2024-03-22T04:25:51;48.33;;;28.77;;
18899;SDS011;9582;52.018;6.306;2024-03-22T04:28:17;50.33;;;29.60;;
18899;SDS011;9582;52.018;6.306;2024-03-22T04:30:53;50.47;;;29.07;;
18899;SDS011;9582;52.018;6.306;2024-03-22T04:33:19;42.83;;;23.87;;
18899;SDS011;9582;52.018;6.306;2024-03-22T04:35:46;46.67;;;28.00;;
18899;SDS011;9582;52.018;6.306;2024-03-22T04:38:11;48.53;;;28.90;;
18899;SDS011;9582;52.018;6.306;2024-03-22T04:40:39;43.90;;;25.85;;
18899;SDS011;9582;52.018;6.306;2024-03-22T04:43:07;46.78;;;29.73;;
18899;SDS011;9582;52.018;6.306;2024-03-22T04:45:34;53.13;;;30.80;;
18899;SDS011;9582;52.018;6.306;2024-03-22T04:48:01;42.20;;;26.98;;
18899;SDS011;9582;52.018;6.306;2024-03-22T04:50:27;44.13;;;27.52;;
18899;SDS011;9582;52.018;6.306;2024-03-22T04:52:54;44.40;;;27.73;;
18899;SDS011;9582;52.018;6.306;2024-03-22T04:55:19;42.50;;;27.63;;
18899;SDS011;9582;52.018;6.306;2024-03-22T04:57:47;45.40;;;28.88;;
18899;SDS011;9582;52.018;6.306;2024-03-22T05:00:14;41.13;;;23.07;;
18899;SDS011;9582;52.018;6.306;2024-03-22T05:02:41;47.28;;;25.77;;
18899;SDS011;9582;52.018;6.306;2024-03-22T05:05:07;43.92;;;26.50;;
18899;SDS011;9582;52.018;6.306;2024-03-22T05:07:34;42.00;;;27.00;;
18899;SDS011;9582;52.018;6.306;2024-03-22T05:10:00;41.00;;;27.50;;
18899;SDS011;9582;52.018;6.306;2024-03-22T05:12:28;43.05;;;26.95;;
18899;SDS011;9582;52.018;6.306;2024-03-22T05:14:55;37.47;;;22.52;;
18899;SDS011;9582;52.018;6.306;2024-03-22T05:17:22;43.30;;;26.67;;
18899;SDS011;9582;52.018;6.306;2024-03-22T05:19:48;39.40;;;24.83;;
18899;SDS011;9582;52.018;6.306;2024-03-22T05:22:15;39.88;;;26.00;;
18899;SDS011;9582;52.018;6.306;2024-03-22T05:24:41;39.13;;;23.17;;
18899;SDS011;9582;52.018;6.306;2024-03-22T05:27:07;37.50;;;21.75;;
18899;SDS011;9582;52.018;6.306;2024-03-22T05:29:33;40.65;;;24.77;;
18899;SDS011;9582;52.018;6.306;2024-03-22T05:32:01;40.75;;;25.50;;
18899;SDS011;9582;52.018;6.306;2024-03-22T05:34:28;37.20;;;24.02;;
18899;SDS011;9582;52.018;6.306;2024-03-22T05:36:54;40.70;;;25.17;;
18899;SDS011;9582;52.018;6.306;2024-03-22T05:39:21;39.35;;;23.52;;
18899;SDS011;9582;52.018;6.306;2024-03-22T05:41:46;36.73;;;22.63;;
18899;SDS011;9582;52.018;6.306;2024-03-22T05:44:13;35.10;;;22.37;;
18899;SDS011;9582;52.018;6.306;2024-03-22T05:46:39;36.70;;;22.87;;
18899;SDS011;9582;52.018;6.306;2024-03-22T05:49:07;36.70;;;23.52;;
18899;SDS011;9582;52.018;6.306;2024-03-22T05:51:33;39.10;;;24.33;;
18899;SDS011;9582;52.018;6.306;2024-03-22T05:53:59;36.20;;;22.10;;
18899;SDS011;9582;52.018;6.306;2024-03-22T05:56:25;40.15;;;23.15;;
18899;SDS011;9582;52.018;6.306;2024-03-22T05:58:51;34.87;;;22.00;;
18899;SDS011;9582;52.018;6.306;2024-03-22T06:01:17;35.97;;;20.33;;
18899;SDS011;9582;52.018;6.306;2024-03-22T06:03:44;39.28;;;23.10;;
18899;SDS011;9582;52.018;6.306;2024-03-22T06:06:11;35.90;;;22.27;;
18899;SDS011;9582;52.018;6.306;2024-03-22T06:08:38;32.42;;;18.38;;
18899;SDS011;9582;52.018;6.306;2024-03-22T06:11:06;33.03;;;19.53;;
18899;SDS011;9582;52.018;6.306;2024-03-22T06:13:33;30.60;;;17.67;;
18899;SDS011;9582;52.018;6.306;2024-03-22T06:16:00;27.75;;;18.05;;
18899;SDS011;9582;52.018;6.306;2024-03-22T06:18:26;32.30;;;20.50;;
18899;SDS011;9582;52.018;6.306;2024-03-22T06:20:52;30.13;;;18.77;;
18899;SDS011;9582;52.018;6.306;2024-03-22T06:23:21;21.95;;;12.23;;
18899;SDS011;9582;52.018;6.306;2024-03-22T06:25:50;24.63;;;16.90;;
18899;SDS011;9582;52.018;6.306;2024-03-22T06:28:17;25.92;;;15.10;;
18899;SDS011;9582;52.018;6.306;2024-03-22T06:30:43;20.52;;;13.85;;
18899;SDS011;9582;52.018;6.306;2024-03-22T06:33:10;24.77;;;14.80;;
18899;SDS011;9582;52.018;6.306;2024-03-22T06:35:35;25.60;;;15.93;;
18899;SDS011;9582;52.018;6.306;2024-03-22T06:38:02;18.90;;;11.88;;
18899;SDS011;9582;52.018;6.306;2024-03-22T06:40:29;25.27;;;15.93;;
18899;SDS011;9582;52.018;6.306;2024-03-22T06:42:56;26.20;;;16.03;;
18899;SDS011;9582;52.018;6.306;2024-03-22T06:45:21;25.47;;;16.80;;
18899;SDS011;9582;52.018;6.306;2024-03-22T06:47:48;26.67;;;16.83;;
18899;SDS011;9582;52.018;6.306;2024-03-22T06:50:14;28.20;;;17.00;;
18899;SDS011;9582;52.018;6.306;2024-03-22T06:52:42;26.43;;;17.10;;
18899;SDS011;9582;52.018;6.306;2024-03-22T06:55:08;25.13;;;17.00;;
18899;SDS011;9582;52.018;6.306;2024-03-22T06:57:36;29.73;;;17.70;;
18899;SDS011;9582;52.018;6.306;2024-03-22T07:00:02;26.50;;;16.93;;
18899;SDS011;9582;52.018;6.306;2024-03-22T07:02:29;28.40;;;17.65;;
18899;SDS011;9582;52.018;6.306;2024-03-22T07:04:55;32.73;;;19.23;;
18899;SDS011;9582;52.018;6.306;2024-03-22T07:07:21;26.30;;;14.87;;
18899;SDS011;9582;52.018;6.306;2024-03-22T07:09:47;27.77;;;18.10;;
18899;SDS011;9582;52.018;6.306;2024-03-22T07:12:14;24.27;;;15.67;;
18899;SDS011;9582;52.018;6.306;2024-03-22T07:14:41;29.90;;;16.90;;
18899;SDS011;9582;52.018;6.306;2024-03-22T07:17:07;22.87;;;15.10;;
18899;SDS011;9582;52.018;6.306;2024-03-22T07:19:33;21.13;;;11.67;;
18899;SDS011;9582;52.018;6.306;2024-03-22T07:22:00;22.80;;;14.17;;
18899;SDS011;9582;52.018;6.306;2024-03-22T07:24:26;22.50;;;13.20;;
18899;SDS011;9582;52.018;6.306;2024-03-22T07:26:52;24.95;;;15.75;;
18899;SDS011;9582;52.018;6.306;2024-03-22T07:29:18;26.17;;;15.73;;
18899;SDS011;9582;52.018;6.306;2024-03-22T07:31:46;24.67;;;14.83;;
18899;SDS011;9582;52.018;6.306;2024-03-22T07:34:12;23.20;;;15.03;;
18899;SDS011;9582;52.018;6.306;2024-03-22T07:36:38;19.83;;;14.00;;
18899;SDS011;9582;52.018;6.306;2024-03-22T07:39:04;25.87;;;15.63;;
18899;SDS011;9582;52.018;6.306;2024-03-22T07:41:32;24.23;;;15.95;;
18899;SDS011;9582;52.018;6.306;2024-03-22T07:43:58;25.47;;;14.57;;
18899;SDS011;9582;52.018;6.306;2024-03-22T07:46:25;22.52;;;15.07;;
18899;SDS011;9582;52.018;6.306;2024-03-22T07:48:52;26.27;;;16.50;;
18899;SDS011;9582;52.018;6.306;2024-03-22T07:51:18;23.23;;;13.25;;
18899;SDS011;9582;52.018;6.306;2024-03-22T07:53:44;20.80;;;14.00;;
18899;SDS011;9582;52.018;6.306;2024-03-22T07:56:11;23.03;;;15.00;;
18899;SDS011;9582;52.018;6.306;2024-03-22T07:58:37;23.57;;;15.03;;
18899;SDS011;9582;52.018;6.306;2024-03-22T08:01:04;24.85;;;15.00;;
18899;SDS011;9582;52.018;6.306;2024-03-22T08:03:30;25.03;;;15.53;;
18899;SDS011;9582;52.018;6.306;2024-03-22T08:05:58;21.40;;;14.77;;
18899;SDS011;9582;52.018;6.306;2024-03-22T08:08:23;23.30;;;15.53;;
18899;SDS011;9582;52.018;6.306;2024-03-22T08:10:50;26.40;;;15.20;;
18899;SDS011;9582;52.018;6.306;2024-03-22T08:13:16;25.52;;;16.00;;
18899;SDS011;9582;52.018;6.306;2024-03-22T08:15:43;26.40;;;15.52;;
18899;SDS011;9582;52.018;6.306;2024-03-22T08:18:10;21.05;;;11.75;;
18899;SDS011;9582;52.018;6.306;2024-03-22T08:20:38;13.52;;;7.28;;
18899;SDS011;9582;52.018;6.306;2024-03-22T08:23:05;19.02;;;10.57;;
18899;SDS011;9582;52.018;6.306;2024-03-22T08:25:32;25.13;;;14.85;;
18899;SDS011;9582;52.018;6.306;2024-03-22T08:27:59;23.55;;;14.20;;
18899;SDS011;9582;52.018;6.306;2024-03-22T08:30:26;22.37;;;12.43;;
18899;SDS011;9582;52.018;6.306;2024-03-22T08:32:51;24.67;;;15.85;;
18899;SDS011;9582;52.018;6.306;2024-03-22T08:35:18;25.50;;;16.15;;
18899;SDS011;9582;52.018;6.306;2024-03-22T08:37:44;24.53;;;14.63;;
18899;SDS011;9582;52.018;6.306;2024-03-22T08:40:12;22.07;;;12.83;;
18899;SDS011;9582;52.018;6.306;2024-03-22T08:42:39;20.13;;;12.82;;
18899;SDS011;9582;52.018;6.306;2024-03-22T08:45:06;25.73;;;15.00;;
18899;SDS011;9582;52.018;6.306;2024-03-22T08:47:32;24.03;;;13.03;;
18899;SDS011;9582;52.018;6.306;2024-03-22T08:49:59;25.63;;;16.37;;
18899;SDS011;9582;52.018;6.306;2024-03-22T08:52:25;25.40;;;15.97;;
18899;SDS011;9582;52.018;6.306;2024-03-22T08:54:52;19.57;;;10.73;;
18899;SDS011;9582;52.018;6.306;2024-03-22T08:57:19;25.97;;;15.20;;
18899;SDS011;9582;52.018;6.306;2024-03-22T08:59:46;25.43;;;14.23;;
18899;SDS011;9582;52.018;6.306;2024-03-22T09:02:11;28.00;;;17.13;;
18899;SDS011;9582;52.018;6.306;2024-03-22T09:04:38;25.60;;;16.70;;
18899;SDS011;9582;52.018;6.306;2024-03-22T09:07:04;28.23;;;19.00;;
18899;SDS011;9582;52.018;6.306;2024-03-22T09:09:31;25.17;;;15.60;;
18899;SDS011;9582;52.018;6.306;2024-03-22T09:11:56;18.93;;;11.87;;
18899;SDS011;9582;52.018;6.306;2024-03-22T09:14:24;31.10;;;18.65;;
18899;SDS011;9582;52.018;6.306;2024-03-22T09:16:51;28.70;;;17.83;;
18899;SDS011;9582;52.018;6.306;2024-03-22T09:19:17;31.00;;;20.07;;
18899;SDS011;9582;52.018;6.306;2024-03-22T09:21:43;29.33;;;17.73;;
18899;SDS011;9582;52.018;6.306;2024-03-22T09:24:10;27.90;;;16.57;;
18899;SDS011;9582;52.018;6.306;2024-03-22T09:26:35;31.58;;;18.73;;
18899;SDS011;9582;52.018;6.306;2024-03-22T09:29:02;32.50;;;19.63;;
18899;SDS011;9582;52.018;6.306;2024-03-22T09:31:30;31.07;;;19.73;;
18899;SDS011;9582;52.018;6.306;2024-03-22T09:33:58;33.60;;;19.47;;
18899;SDS011;9582;52.018;6.306;2024-03-22T09:36:24;34.53;;;21.20;;
18899;SDS011;9582;52.018;6.306;2024-03-22T09:38:51;32.73;;;20.23;;
18899;SDS011;9582;52.018;6.306;2024-03-22T09:41:17;34.65;;;19.55;;
18899;SDS011;9582;52.018;6.306;2024-03-22T09:43:50;37.47;;;22.10;;
18899;SDS011;9582;52.018;6.306;2024-03-22T09:46:17;38.85;;;23.13;;
18899;SDS011;9582;52.018;6.306;2024-03-22T09:48:47;35.57;;;21.07;;
18899;SDS011;9582;52.018;6.306;2024-03-22T09:51:13;37.00;;;23.40;;
18899;SDS011;9582;52.018;6.306;2024-03-22T09:53:41;41.80;;;22.20;;
18899;SDS011;9582;52.018;6.306;2024-03-22T09:56:09;39.43;;;22.07;;
18899;SDS011;9582;52.018;6.306;2024-03-22T09:58:37;38.30;;;22.13;;
18899;SDS011;9582;52.018;6.306;2024-03-22T10:01:03;36.05;;;21.05;;
18899;SDS011;9582;52.018;6.306;2024-03-22T10:03:31;35.55;;;20.33;;
18899;SDS011;9582;52.018;6.306;2024-03-22T10:05:58;31.07;;;16.90;;
18899;SDS011;9582;52.018;6.306;2024-03-22T10:08:24;31.70;;;16.40;;
18899;SDS011;9582;52.018;6.306;2024-03-22T10:10:50;32.92;;;19.88;;
18899;SDS011;9582;52.018;6.306;2024-03-22T10:13:17;32.47;;;16.80;;
18899;SDS011;9582;52.018;6.306;2024-03-22T10:15:42;34.53;;;19.50;;
18899;SDS011;9582;52.018;6.306;2024-03-22T10:18:09;35.53;;;20.97;;
18899;SDS011;9582;52.018;6.306;2024-03-22T10:20:35;31.50;;;18.93;;
18899;SDS011;9582;52.018;6.306;2024-03-22T10:23:03;27.30;;;14.43;;
18899;SDS011;9582;52.018;6.306;2024-03-22T10:25:29;41.60;;;22.05;;
18899;SDS011;9582;52.018;6.306;2024-03-22T10:27:56;36.23;;;18.83;;
18899;SDS011;9582;52.018;6.306;2024-03-22T10:30:22;35.87;;;22.40;;
18899;SDS011;9582;52.018;6.306;2024-03-22T10:32:50;33.33;;;21.00;;
18899;SDS011;9582;52.018;6.306;2024-03-22T10:35:17;31.63;;;17.57;;
18899;SDS011;9582;52.018;6.306;2024-03-22T10:37:44;37.27;;;22.60;;
18899;SDS011;9582;52.018;6.306;2024-03-22T10:40:11;32.83;;;19.17;;
18899;SDS011;9582;52.018;6.306;2024-03-22T10:42:39;32.25;;;19.10;;
18899;SDS011;9582;52.018;6.306;2024-03-22T10:45:06;31.08;;;18.98;;
18899;SDS011;9582;52.018;6.306;2024-03-22T10:47:35;35.70;;;22.00;;
18899;SDS011;9582;52.018;6.306;2024-03-22T10:50:04;37.13;;;21.88;;
18899;SDS011;9582;52.018;6.306;2024-03-22T10:52:33;36.80;;;20.67;;
18899;SDS011;9582;52.018;6.306;2024-03-22T10:55:03;35.00;;;20.70;;
18899;SDS011;9582;52.018;6.306;2024-03-22T10:57:34;30.80;;;19.87;;
18899;SDS011;9582;52.018;6.306;2024-03-22T11:00:03;27.43;;;17.07;;
18899;SDS011;9582;52.018;6.306;2024-03-22T11:02:35;34.07;;;20.20;;
18899;SDS011;9582;52.018;6.306;2024-03-22T11:05:01;31.70;;;20.17;;
18899;SDS011;9582;52.018;6.306;2024-03-22T11:07:28;29.67;;;16.80;;
18899;SDS011;9582;52.018;6.306;2024-03-22T11:09:56;27.63;;;17.83;;
18899;SDS011;9582;52.018;6.306;2024-03-22T11:12:24;32.63;;;18.90;;
18899;SDS011;9582;52.018;6.306;2024-03-22T11:14:52;30.87;;;19.47;;
18899;SDS011;9582;52.018;6.306;2024-03-22T11:17:19;30.40;;;16.80;;
18899;SDS011;9582;52.018;6.306;2024-03-22T11:19:48;27.83;;;17.77;;
18899;SDS011;9582;52.018;6.306;2024-03-22T11:22:14;33.07;;;20.37;;
18899;SDS011;9582;52.018;6.306;2024-03-22T11:24:40;28.47;;;17.10;;
18899;SDS011;9582;52.018;6.306;2024-03-22T11:27:07;27.27;;;17.23;;
18899;SDS011;9582;52.018;6.306;2024-03-22T11:29:38;28.93;;;18.23;;
18899;SDS011;9582;52.018;6.306;2024-03-22T11:32:08;27.27;;;16.97;;
18899;SDS011;9582;52.018;6.306;2024-03-22T11:34:34;33.03;;;18.87;;
18899;SDS011;9582;52.018;6.306;2024-03-22T11:37:00;30.20;;;17.03;;
18899;SDS011;9582;52.018;6.306;2024-03-22T11:39:26;25.50;;;16.20;;
18899;SDS011;9582;52.018;6.306;2024-03-22T11:41:53;26.27;;;16.03;;
18899;SDS011;9582;52.018;6.306;2024-03-22T11:44:19;28.10;;;18.80;;
18899;SDS011;9582;52.018;6.306;2024-03-22T11:46:47;25.93;;;16.27;;
18899;SDS011;9582;52.018;6.306;2024-03-22T11:49:15;26.83;;;17.07;;
18899;SDS011;9582;52.018;6.306;2024-03-22T11:51:41;27.00;;;17.63;;
18899;SDS011;9582;52.018;6.306;2024-03-22T11:54:07;22.50;;;13.23;;
18899;SDS011;9582;52.018;6.306;2024-03-22T11:56:34;29.13;;;17.23;;
18899;SDS011;9582;52.018;6.306;2024-03-22T11:59:00;30.17;;;18.93;;
18899;SDS011;9582;52.018;6.306;2024-03-22T12:01:28;30.80;;;17.97;;
18899;SDS011;9582;52.018;6.306;2024-03-22T12:03:54;28.85;;;18.85;;
18899;SDS011;9582;52.018;6.306;2024-03-22T12:06:22;25.50;;;16.88;;
18899;SDS011;9582;52.018;6.306;2024-03-22T12:08:48;28.17;;;18.00;;
18899;SDS011;9582;52.018;6.306;2024-03-22T12:11:16;21.50;;;14.83;;
18899;SDS011;9582;52.018;6.306;2024-03-22T12:13:41;19.20;;;12.73;;
18899;SDS011;9582;52.018;6.306;2024-03-22T12:16:08;17.53;;;12.27;;
18899;SDS011;9582;52.018;6.306;2024-03-22T12:18:34;17.90;;;12.07;;
18899;SDS011;9582;52.018;6.306;2024-03-22T12:21:00;17.80;;;12.67;;
18899;SDS011;9582;52.018;6.306;2024-03-22T12:23:29;15.00;;;10.68;;
18899;SDS011;9582;52.018;6.306;2024-03-22T12:25:54;14.97;;;9.87;;
18899;SDS011;9582;52.018;6.306;2024-03-22T12:28:22;14.37;;;10.70;;
18899;SDS011;9582;52.018;6.306;2024-03-22T12:30:47;16.60;;;11.67;;
18899;SDS011;9582;52.018;6.306;2024-03-22T12:33:14;12.83;;;9.40;;
18899;SDS011;9582;52.018;6.306;2024-03-22T12:35:40;16.10;;;10.70;;
18899;SDS011;9582;52.018;6.306;2024-03-22T12:38:07;14.30;;;10.13;;
18899;SDS011;9582;52.018;6.306;2024-03-22T12:40:37;15.77;;;10.80;;
18899;SDS011;9582;52.018;6.306;2024-03-22T12:43:04;12.07;;;8.97;;
18899;SDS011;9582;52.018;6.306;2024-03-22T12:45:29;11.23;;;8.70;;
18899;SDS011;9582;52.018;6.306;2024-03-22T12:47:57;12.50;;;9.83;;
18899;SDS011;9582;52.018;6.306;2024-03-22T12:50:23;14.13;;;9.97;;
18899;SDS011;9582;52.018;6.306;2024-03-22T12:52:50;12.63;;;9.97;;
18899;SDS011;9582;52.018;6.306;2024-03-22T12:55:16;12.97;;;9.77;;
18899;SDS011;9582;52.018;6.306;2024-03-22T12:57:45;14.47;;;10.03;;
18899;SDS011;9582;52.018;6.306;2024-03-22T13:00:11;10.77;;;7.87;;
18899;SDS011;9582;52.018;6.306;2024-03-22T13:02:43;12.43;;;9.02;;
18899;SDS011;9582;52.018;6.306;2024-03-22T13:05:09;12.43;;;8.97;;
18899;SDS011;9582;52.018;6.306;2024-03-22T13:07:36;10.87;;;9.37;;
18899;SDS011;9582;52.018;6.306;2024-03-22T13:10:02;10.67;;;7.53;;
18899;SDS011;9582;52.018;6.306;2024-03-22T13:12:29;9.68;;;8.18;;
18899;SDS011;9582;52.018;6.306;2024-03-22T13:14:57;9.03;;;6.87;;
18899;SDS011;9582;52.018;6.306;2024-03-22T13:17:24;8.23;;;6.70;;
18899;SDS011;9582;52.018;6.306;2024-03-22T13:19:49;8.83;;;6.47;;
18899;SDS011;9582;52.018;6.306;2024-03-22T13:22:16;9.20;;;7.60;;
18899;SDS011;9582;52.018;6.306;2024-03-22T13:24:43;10.90;;;8.32;;
18899;SDS011;9582;52.018;6.306;2024-03-22T13:27:10;7.05;;;5.88;;
18899;SDS011;9582;52.018;6.306;2024-03-22T13:29:35;8.17;;;6.40;;
18899;SDS011;9582;52.018;6.306;2024-03-22T13:32:04;8.15;;;5.82;;
18899;SDS011;9582;52.018;6.306;2024-03-22T13:34:32;7.17;;;5.63;;
18899;SDS011;9582;52.018;6.306;2024-03-22T13:36:58;6.10;;;4.10;;
18899;SDS011;9582;52.018;6.306;2024-03-22T13:39:24;7.57;;;5.60;;
18899;SDS011;9582;52.018;6.306;2024-03-22T13:41:51;7.33;;;6.20;;
18899;SDS011;9582;52.018;6.306;2024-03-22T13:44:16;6.00;;;5.07;;
18899;SDS011;9582;52.018;6.306;2024-03-22T13:46:43;5.67;;;4.67;;
18899;SDS011;9582;52.018;6.306;2024-03-22T13:49:14;5.90;;;5.28;;
18899;SDS011;9582;52.018;6.306;2024-03-22T13:51:42;6.80;;;6.07;;
18899;SDS011;9582;52.018;6.306;2024-03-22T13:54:08;5.80;;;5.13;;
18899;SDS011;9582;52.018;6.306;2024-03-22T13:56:35;6.60;;;5.72;;
18899;SDS011;9582;52.018;6.306;2024-03-22T13:59:01;5.20;;;4.50;;
18899;SDS011;9582;52.018;6.306;2024-03-22T14:01:29;5.00;;;4.30;;
18899;SDS011;9582;52.018;6.306;2024-03-22T14:03:55;5.85;;;5.25;;
18899;SDS011;9582;52.018;6.306;2024-03-22T14:06:23;6.03;;;4.38;;
18899;SDS011;9582;52.018;6.306;2024-03-22T14:08:48;6.18;;;5.47;;
18899;SDS011;9582;52.018;6.306;2024-03-22T14:11:15;7.57;;;5.77;;
18899;SDS011;9582;52.018;6.306;2024-03-22T14:13:42;5.20;;;4.53;;
18899;SDS011;9582;52.018;6.306;2024-03-22T14:16:08;5.90;;;4.87;;
18899;SDS011;9582;52.018;6.306;2024-03-22T14:18:34;4.75;;;4.22;;
18899;SDS011;9582;52.018;6.306;2024-03-22T14:21:00;4.68;;;4.18;;
18899;SDS011;9582;52.018;6.306;2024-03-22T14:23:29;3.80;;;3.40;;
18899;SDS011;9582;52.018;6.306;2024-03-22T14:25:54;4.63;;;3.97;;
18899;SDS011;9582;52.018;6.306;2024-03-22T14:28:21;3.93;;;3.53;;
18899;SDS011;9582;52.018;6.306;2024-03-22T14:30:47;4.80;;;3.83;;
18899;SDS011;9582;52.018;6.306;2024-03-22T14:33:13;4.67;;;4.20;;
18899;SDS011;9582;52.018;6.306;2024-03-22T14:35:39;4.10;;;3.53;;